PROFILE

 METAR AND TAF INFORMATION
ADDS - METARS form results

(0546 UTC 22 September 2019)
http://aviationweather.gov/metar/data/
 
SAWH 220500Z 23015KT 9999 BKN030 04/00 Q1003
TAF SAWH 220500Z 2206/2306 23015KT 9999 BKN015 OVC020 TX06/2219Z TNM01/2211Z BECMG 2208/2210 36010KT 8000 BR DZ SCT020 OVC050 TEMPO 2213/2216 VRB03KT 9000 -DZ SCT030 BKN060 BECMG 2218/2220 4000 DZ BR BKN002 OVC010 BECMG 2222/2224 2000 RA BR SCT008 OVC010 

 AIRPORT MAP

 RUNWAY INFORMATION
Runway 7 Runway length 9186 ft Runway width 148 ft
Runway elevation 85 ft Runway displaced threshold 591 ft Runway heading 86
Runway 25 Runway length 9186 ft Runway width 148 ft
Runway elevation 74 ft Runway displaced threshold 525 ft Runway heading 266

 AIRPORT FREQUENCIES
Type RDO Name RDO Frequency 122.1 MHZ
Type TWR Name TWR/APP Frequency 118.1 MHZ

 AIRPORT NEAR NAVIGATION AIDS
Type VOR Name Ushuaia Frequency 113700 KHZ